createdAt,value
2019-02-04T00:00:30.790Z,73.64
2019-02-04T00:02:57.602Z,73.08
2019-02-04T00:05:24.351Z,73.01
2019-02-04T00:07:51.074Z,72.77
2019-02-04T00:10:17.944Z,73.14
2019-02-04T00:12:44.923Z,74.21
2019-02-04T00:15:11.716Z,75.36
2019-02-04T00:17:38.571Z,75.28
2019-02-04T00:20:05.811Z,75.60
2019-02-04T00:22:32.742Z,75.59
2019-02-04T00:24:59.608Z,75.05
2019-02-04T00:27:26.336Z,75.18
2019-02-04T00:29:53.282Z,74.91
2019-02-04T00:32:20.276Z,74.56
2019-02-04T00:34:47.875Z,74.98
2019-02-04T00:37:14.730Z,74.65
2019-02-04T00:39:41.527Z,74.79
2019-02-04T00:42:08.723Z,74.64
2019-02-04T00:44:35.466Z,74.74
2019-02-04T00:47:02.343Z,74.93
2019-02-04T00:49:29.204Z,75.25
2019-02-04T00:51:56.808Z,75.29
2019-02-04T00:54:23.988Z,75.37
2019-02-04T00:56:50.716Z,75.44
2019-02-04T00:59:17.527Z,75.21
2019-02-04T01:01:44.286Z,75.37
2019-02-04T01:04:11.168Z,75.28
2019-02-04T01:06:38.189Z,75.67
2019-02-04T01:09:07.448Z,75.49
2019-02-04T01:11:34.208Z,74.79
2019-02-04T01:14:01.045Z,75.09
2019-02-04T01:16:30.476Z,74.29
2019-02-04T01:18:57.344Z,75.77
2019-02-04T01:21:24.384Z,76.96
2019-02-04T01:23:51.384Z,77.74
2019-02-04T01:26:20.710Z,77.37
2019-02-04T01:28:47.587Z,78.04
2019-02-04T01:31:14.324Z,78.38
2019-02-04T01:33:41.082Z,77.33
2019-02-04T01:36:07.773Z,77.08
2019-02-04T01:38:35.048Z,76.97
2019-02-04T01:41:02.186Z,77.60
2019-02-04T01:43:29.148Z,78.29
2019-02-04T01:45:55.942Z,78.20
2019-02-04T01:48:22.712Z,77.93
2019-02-04T01:50:49.851Z,77.64
2019-02-04T01:53:16.606Z,76.99
2019-02-04T01:55:43.337Z,76.88
2019-02-04T01:58:10.318Z,76.40
2019-02-04T02:00:37.886Z,76.70
2019-02-04T02:03:04.618Z,77.02
2019-02-04T02:05:31.403Z,76.98
2019-02-04T02:07:58.640Z,76.50
2019-02-04T02:10:25.829Z,76.90
2019-02-04T02:12:55.163Z,77.13
2019-02-04T02:15:21.930Z,77.67
2019-02-04T02:17:49.194Z,78.88
2019-02-04T02:20:18.551Z,77.65
2019-02-04T02:22:45.349Z,78.14
2019-02-04T02:25:12.102Z,77.73
2019-02-04T02:27:39.060Z,77.34
2019-02-04T02:30:12.430Z,77.12
2019-02-04T02:32:39.488Z,77.47
2019-02-04T02:35:06.848Z,77.28
2019-02-04T02:37:33.826Z,77.11
2019-02-04T02:40:00.892Z,77.11
2019-02-04T02:42:27.987Z,77.80
2019-02-04T02:44:54.723Z,77.61
2019-02-04T02:47:21.490Z,77.71
2019-02-04T02:49:50.826Z,77.39
2019-02-04T02:52:17.902Z,77.10
2019-02-04T02:54:44.993Z,77.01
2019-02-04T02:57:15.048Z,77.07
2019-02-04T02:59:41.795Z,77.39
2019-02-04T03:02:08.677Z,76.74
2019-02-04T03:04:35.600Z,77.06
2019-02-04T03:07:02.861Z,75.95
2019-02-04T03:09:29.931Z,76.80
2019-02-04T03:11:56.650Z,76.79
2019-02-04T03:14:23.407Z,76.59
2019-02-04T03:16:50.136Z,76.54
2019-02-04T03:19:16.876Z,77.15
2019-02-04T03:21:43.652Z,77.67
2019-02-04T03:24:10.862Z,78.53
2019-02-04T03:26:37.812Z,78.90
2019-02-04T03:29:05.191Z,78.28
2019-02-04T03:31:32.050Z,77.81
2019-02-04T03:33:58.762Z,77.34
2019-02-04T03:36:25.594Z,77.38
2019-02-04T03:38:55.592Z,76.99
2019-02-04T03:41:22.450Z,76.85
2019-02-04T03:43:49.309Z,76.09
2019-02-04T03:46:16.057Z,75.99
2019-02-04T03:48:43.366Z,75.83
2019-02-04T03:51:10.125Z,75.41
2019-02-04T03:53:37.008Z,77.01
2019-02-04T03:56:03.875Z,76.94
2019-02-04T03:58:33.900Z,77.18
2019-02-04T04:01:00.654Z,77.20
2019-02-04T04:03:27.525Z,77.68
2019-02-04T04:05:54.335Z,78.17
2019-02-04T04:08:23.026Z,78.22
2019-02-04T04:10:49.867Z,77.50
2019-02-04T04:13:16.679Z,77.58
2019-02-04T04:15:43.735Z,77.04
2019-02-04T04:18:15.934Z,76.53
2019-02-04T04:20:39.098Z,76.35
2019-02-04T04:23:05.807Z,76.54
2019-02-04T04:25:32.545Z,76.29
2019-02-04T04:27:59.288Z,76.99
2019-02-04T04:30:26.043Z,77.41
2019-02-04T04:32:53.122Z,76.01
2019-02-04T04:35:19.869Z,75.90
2019-02-04T04:37:46.616Z,76.11
2019-02-04T04:40:13.989Z,75.96
2019-02-04T04:42:40.721Z,76.20
2019-02-04T04:45:08.965Z,76.45
2019-02-04T04:47:35.729Z,76.69
2019-02-04T04:50:03.586Z,76.37
2019-02-04T04:52:30.324Z,76.29
2019-02-04T04:54:57.062Z,76.89
2019-02-04T04:57:23.779Z,76.73
2019-02-04T04:59:50.565Z,77.35
2019-02-04T05:02:17.291Z,77.43
2019-02-04T05:04:46.213Z,77.86
2019-02-04T05:07:13.328Z,78.09
2019-02-04T05:09:40.119Z,78.26
2019-02-04T05:12:07.092Z,77.98
2019-02-04T05:14:33.829Z,77.64
2019-02-04T05:17:02.510Z,76.88
2019-02-04T05:19:29.230Z,76.26
2019-02-04T05:21:55.982Z,76.52
2019-02-04T05:24:22.713Z,76.76
2019-02-04T05:26:49.472Z,77.30
2019-02-04T05:29:16.191Z,76.83
2019-02-04T05:31:42.975Z,76.13
2019-02-04T05:34:09.840Z,76.33
2019-02-04T05:36:36.939Z,75.40
2019-02-04T05:39:06.345Z,75.16
2019-02-04T05:41:33.583Z,75.71
2019-02-04T05:44:00.311Z,75.23
2019-02-04T05:46:27.302Z,75.03
2019-02-04T05:48:55.532Z,75.30
2019-02-04T05:51:22.315Z,75.06
2019-02-04T05:53:49.032Z,74.88
2019-02-04T05:56:15.828Z,76.01
2019-02-04T05:58:45.169Z,75.86
2019-02-04T06:01:11.951Z,75.80
2019-02-04T06:03:38.980Z,75.60
2019-02-04T06:06:05.745Z,75.56
2019-02-04T06:08:32.484Z,75.48
2019-02-04T06:10:59.286Z,75.67
2019-02-04T06:13:26.264Z,74.72
2019-02-04T06:15:53.086Z,75.45
2019-02-04T06:18:20.291Z,74.64
2019-02-04T06:20:47.070Z,75.11
2019-02-04T06:23:13.858Z,74.85
2019-02-04T06:25:40.624Z,74.78
2019-02-04T06:28:07.393Z,74.67
2019-02-04T06:30:34.438Z,74.82
2019-02-04T06:33:01.173Z,75.49
2019-02-04T06:35:28.214Z,75.60
2019-02-04T06:37:55.018Z,75.13
2019-02-04T06:40:23.741Z,75.20
2019-02-04T06:42:50.843Z,75.41
2019-02-04T06:45:17.699Z,75.61
2019-02-04T06:47:44.663Z,75.34
2019-02-04T06:50:14.060Z,75.80
2019-02-04T06:52:41.186Z,75.40
2019-02-04T06:55:11.370Z,74.73
2019-02-04T06:57:38.213Z,74.43
2019-02-04T07:00:08.310Z,74.78
2019-02-04T07:02:35.603Z,75.07
2019-02-04T07:05:03.689Z,75.27
2019-02-04T07:07:30.458Z,74.60
2019-02-04T07:09:57.673Z,74.60
2019-02-04T07:12:24.542Z,75.11
2019-02-04T07:14:51.518Z,74.87
2019-02-04T07:17:19.979Z,75.22
2019-02-04T07:19:46.696Z,75.12
2019-02-04T07:22:13.404Z,75.17
2019-02-04T07:24:42.772Z,75.20
2019-02-04T07:27:08.756Z,75.24
2019-02-04T07:29:35.702Z,75.01
2019-02-04T07:32:02.680Z,75.31
2019-02-04T07:34:29.536Z,75.08
2019-02-04T07:36:58.094Z,75.14
2019-02-04T07:39:25.173Z,74.96
2019-02-04T07:41:52.194Z,74.67
2019-02-04T07:44:19.448Z,74.74
2019-02-04T07:46:49.697Z,74.84
2019-02-04T07:49:16.802Z,74.73
2019-02-04T07:51:45.975Z,74.66
2019-02-04T07:54:12.720Z,74.87
2019-02-04T07:56:39.594Z,74.50
2019-02-04T07:59:06.533Z,73.71
2019-02-04T08:01:33.598Z,73.70
2019-02-04T08:04:00.531Z,73.47
2019-02-04T08:06:27.251Z,73.85
2019-02-04T08:08:54.180Z,74.00
2019-02-04T08:11:21.214Z,73.88
2019-02-04T08:13:47.982Z,74.12
2019-02-04T08:16:17.918Z,74.52
2019-02-04T08:18:45.810Z,74.57
2019-02-04T08:21:12.524Z,74.40
2019-02-04T08:23:39.452Z,74.75
2019-02-04T08:26:06.212Z,74.28
2019-02-04T08:28:33.090Z,74.51
2019-02-04T08:30:59.836Z,74.56
2019-02-04T08:33:26.665Z,74.32
2019-02-04T08:35:53.450Z,73.56
2019-02-04T08:38:25.047Z,73.64
2019-02-04T08:40:54.552Z,73.09
2019-02-04T08:43:21.452Z,73.26
2019-02-04T08:45:48.450Z,73.10
2019-02-04T08:48:15.312Z,73.26
2019-02-04T08:50:44.241Z,73.03
2019-02-04T08:53:14.203Z,73.17
2019-02-04T08:55:42.255Z,72.87
2019-02-04T08:58:09.316Z,72.59
2019-02-04T09:00:36.245Z,72.40
2019-02-04T09:03:02.980Z,72.37
2019-02-04T09:05:29.731Z,72.13
2019-02-04T09:07:56.740Z,71.79
2019-02-04T09:10:29.038Z,72.05
2019-02-04T09:12:55.876Z,71.95
2019-02-04T09:15:22.841Z,71.40
2019-02-04T09:17:49.597Z,71.45
2019-02-04T09:20:16.497Z,71.72
2019-02-04T09:22:43.835Z,71.57
2019-02-04T09:25:11.804Z,71.64
2019-02-04T09:27:42.060Z,71.84
2019-02-04T09:30:15.570Z,71.95
2019-02-04T09:33:07.244Z,71.35
2019-02-04T09:35:25.898Z,70.74
2019-02-04T09:37:52.733Z,70.88
2019-02-04T09:40:28.133Z,71.25
2019-02-04T09:42:55.119Z,70.31
2019-02-04T09:45:26.971Z,70.35
2019-02-04T09:47:51.130Z,70.33
2019-02-04T09:50:21.979Z,69.66
2019-02-04T09:52:47.734Z,69.01
2019-02-04T09:55:17.460Z,69.06
2019-02-04T09:57:44.506Z,68.88
2019-02-04T10:00:14.422Z,68.38
2019-02-04T10:02:41.165Z,68.38
2019-02-04T10:05:09.685Z,68.54
2019-02-04T10:07:36.498Z,68.30
2019-02-04T10:10:03.747Z,68.54
2019-02-04T10:12:30.493Z,68.28
2019-02-04T10:14:57.403Z,67.89
2019-02-04T10:17:24.523Z,67.65
2019-02-04T10:19:53.228Z,67.22
2019-02-04T10:22:20.606Z,66.90
2019-02-04T10:24:47.337Z,66.90
2019-02-04T10:27:16.153Z,66.73
2019-02-04T10:29:43.488Z,66.89
2019-02-04T10:32:10.267Z,66.20
2019-02-04T10:34:37.048Z,66.20
2019-02-04T10:37:03.927Z,66.35
2019-02-04T10:39:32.977Z,65.26
2019-02-04T10:41:59.843Z,64.56
2019-02-04T10:44:26.740Z,64.07
2019-02-04T10:46:53.825Z,64.11
2019-02-04T10:49:22.574Z,64.63
2019-02-04T10:51:49.636Z,63.80
2019-02-04T10:54:16.389Z,63.62
2019-02-04T10:56:43.143Z,63.62
2019-02-04T10:59:10.208Z,63.79
2019-02-04T11:01:37.112Z,63.68
2019-02-04T11:04:07.268Z,63.68
2019-02-04T11:06:34.265Z,63.19
2019-02-04T11:09:01.098Z,63.67
2019-02-04T11:11:27.878Z,62.82
2019-02-04T11:13:55.038Z,61.00
2019-02-04T11:16:21.752Z,61.37
2019-02-04T11:18:48.674Z,61.37
2019-02-04T11:21:15.403Z,62.18
2019-02-04T11:23:42.587Z,62.11
2019-02-04T11:26:09.606Z,60.92
2019-02-04T11:28:36.727Z,60.67
2019-02-04T11:31:08.607Z,58.69
2019-02-04T11:33:35.459Z,58.69
2019-02-04T11:36:02.278Z,55.41
2019-02-04T11:38:29.513Z,55.41
2019-02-04T11:40:56.566Z,49.01
2019-02-04T11:43:23.958Z,47.89
2019-02-04T11:45:50.819Z,48.97
2019-02-04T11:48:19.506Z,46.00
2019-02-04T11:50:46.949Z,46.00
2019-02-04T11:53:14.269Z,46.45
2019-02-04T11:55:41.015Z,46.28
2019-02-04T11:58:08.183Z,45.03
2019-02-04T12:00:35.659Z,44.36
2019-02-04T12:03:02.499Z,44.36
2019-02-04T12:05:31.143Z,44.82
2019-02-04T12:08:00.415Z,45.50
2019-02-04T12:10:30.294Z,45.69
2019-02-04T12:12:57.474Z,45.97
2019-02-04T12:15:24.512Z,44.30
2019-02-04T12:17:51.414Z,42.98
2019-02-04T12:20:21.407Z,42.98
2019-02-04T12:22:49.262Z,42.06
2019-02-04T12:25:18.544Z,42.04
2019-02-04T12:27:45.496Z,42.04
2019-02-04T12:30:22.787Z,42.22
2019-02-04T12:32:49.574Z,43.13
2019-02-04T12:35:17.324Z,41.96
2019-02-04T12:37:44.584Z,42.19
2019-02-04T12:40:11.459Z,41.93
2019-02-04T12:42:38.340Z,41.93
2019-02-04T12:45:09.812Z,42.99
2019-02-04T12:47:36.575Z,42.82
2019-02-04T12:50:03.910Z,42.36
2019-02-04T12:52:30.935Z,42.23
2019-02-04T12:54:57.854Z,42.90
2019-02-04T12:57:25.155Z,43.27
2019-02-04T12:59:52.086Z,42.06
2019-02-04T13:02:19.230Z,41.89
2019-02-04T13:04:45.949Z,42.00
2019-02-04T13:07:12.750Z,41.79
2019-02-04T13:09:39.606Z,41.93
2019-02-04T13:12:09.067Z,41.49
2019-02-04T13:14:36.572Z,41.40
2019-02-04T13:17:03.431Z,41.70
2019-02-04T13:19:31.078Z,41.76
2019-02-04T13:21:57.911Z,41.77
2019-02-04T13:24:24.800Z,41.91
2019-02-04T13:26:52.166Z,41.76
2019-02-04T13:29:19.519Z,42.21
2019-02-04T13:31:48.165Z,41.63
2019-02-04T13:34:16.493Z,40.64
2019-02-04T13:36:43.521Z,41.33
2019-02-04T13:39:10.269Z,41.35
2019-02-04T13:41:37.225Z,41.89
2019-02-04T13:44:03.950Z,42.35
2019-02-04T13:46:31.132Z,42.42
2019-02-04T13:48:58.032Z,42.70
2019-02-04T13:51:25.150Z,42.78
2019-02-04T13:53:52.945Z,42.47
2019-02-04T13:56:19.897Z,42.44
2019-02-04T13:58:55.746Z,42.07
2019-02-04T14:01:22.790Z,42.66
2019-02-04T14:03:49.674Z,42.05
2019-02-04T14:06:16.501Z,42.09
2019-02-04T14:08:43.255Z,42.51
2019-02-04T14:11:12.766Z,41.20
2019-02-04T14:13:39.341Z,42.22
2019-02-04T14:16:06.095Z,40.97
2019-02-04T14:18:33.101Z,40.80
2019-02-04T14:21:00.807Z,41.30
2019-02-04T14:23:31.574Z,41.96
2019-02-04T14:26:00.149Z,42.42
2019-02-04T14:28:26.938Z,42.66
2019-02-04T14:30:54.243Z,42.61
2019-02-04T14:33:21.001Z,42.13
2019-02-04T14:35:49.934Z,42.74
2019-02-04T14:38:16.850Z,43.17
2019-02-04T14:40:48.117Z,43.75
2019-02-04T14:44:09.166Z,43.81
2019-02-04T14:47:05.773Z,43.80
2019-02-04T14:50:19.913Z,43.81
2019-02-04T14:53:20.830Z,44.00
2019-02-04T14:56:08.338Z,43.19
2019-02-04T14:58:52.277Z,44.15
2019-02-04T15:02:01.299Z,43.92
2019-02-04T15:05:12.659Z,45.13
2019-02-04T15:08:35.175Z,45.13
2019-02-04T15:11:39.119Z,44.74
2019-02-04T15:14:46.786Z,44.97
2019-02-04T15:17:18.215Z,45.47
2019-02-04T15:20:24.129Z,45.74
2019-02-04T15:23:19.613Z,45.74
2019-02-04T15:26:12.431Z,45.68
2019-02-04T15:29:01.380Z,45.68
2019-02-04T15:31:57.215Z,45.28
2019-02-04T15:35:04.926Z,47.24
2019-02-04T15:37:47.954Z,47.24
2019-02-04T15:40:42.627Z,46.76
2019-02-04T15:43:36.317Z,46.79
2019-02-04T15:46:53.613Z,47.03
2019-02-04T15:50:02.562Z,47.41
2019-02-04T15:52:29.475Z,47.18
2019-02-04T15:54:56.487Z,47.32
2019-02-04T15:57:23.712Z,46.54
2019-02-04T15:59:50.759Z,46.78
2019-02-04T16:02:17.981Z,47.11
2019-02-04T16:04:44.933Z,47.35
2019-02-04T16:07:14.890Z,47.62
2019-02-04T16:09:41.709Z,47.20
2019-02-04T16:12:08.479Z,47.20
2019-02-04T16:14:35.473Z,47.40
2019-02-04T16:17:06.157Z,47.54
2019-02-04T16:19:32.947Z,47.58
2019-02-04T16:22:01.183Z,47.46
2019-02-04T16:24:28.176Z,47.74
2019-02-04T16:26:57.842Z,48.42
2019-02-04T16:29:25.203Z,48.01
2019-02-04T16:31:52.313Z,48.23
2019-02-04T16:34:20.028Z,47.97
2019-02-04T16:36:49.780Z,47.94
2019-02-04T16:39:17.373Z,47.23
2019-02-04T16:41:46.953Z,48.10
2019-02-04T16:44:13.867Z,48.18
2019-02-04T16:46:41.151Z,48.63
2019-02-04T16:49:08.094Z,48.63
2019-02-04T16:51:35.126Z,48.63
2019-02-04T16:54:09.127Z,48.80
2019-02-04T16:56:36.230Z,49.50
2019-02-04T16:59:03.096Z,49.54
2019-02-04T17:01:30.685Z,50.00
2019-02-04T17:03:57.669Z,50.46
2019-02-04T17:06:24.798Z,51.03
2019-02-04T17:08:51.539Z,51.28
2019-02-04T17:11:19.680Z,51.28
2019-02-04T17:13:46.437Z,51.92
2019-02-04T17:16:13.500Z,51.92
2019-02-04T17:18:40.659Z,53.30
2019-02-04T17:21:07.791Z,53.30
2019-02-04T17:23:34.573Z,54.17
2019-02-04T17:26:01.516Z,54.96
2019-02-04T17:28:28.427Z,55.41
2019-02-04T17:30:55.400Z,55.81
2019-02-04T17:33:22.535Z,55.93
2019-02-04T17:35:49.312Z,56.20
2019-02-04T17:38:16.414Z,56.22
2019-02-04T17:40:43.663Z,56.34
2019-02-04T17:43:10.408Z,56.34
2019-02-04T17:45:37.466Z,56.83
2019-02-04T17:48:04.608Z,56.79
2019-02-04T17:50:31.452Z,57.31
2019-02-04T17:52:58.521Z,57.31
2019-02-04T17:55:25.332Z,57.25
2019-02-04T17:57:52.937Z,57.25
2019-02-04T18:00:40.617Z,57.50
2019-02-04T18:03:07.398Z,57.50
2019-02-04T18:05:34.541Z,58.16
2019-02-04T18:08:01.297Z,58.16
2019-02-04T18:10:28.696Z,57.67
2019-02-04T18:12:55.416Z,58.02
2019-02-04T18:15:22.171Z,58.02
2019-02-04T18:17:49.000Z,58.80
2019-02-04T18:20:16.223Z,59.40
2019-02-04T18:22:46.078Z,59.52
2019-02-04T18:25:13.817Z,59.69
2019-02-04T18:27:40.528Z,60.07
2019-02-04T18:30:10.041Z,60.60
2019-02-04T18:32:36.884Z,60.60
2019-02-04T18:35:04.433Z,60.77
2019-02-04T18:37:31.139Z,60.95
2019-02-04T18:40:00.582Z,61.39
2019-02-04T18:42:27.298Z,61.83
2019-02-04T18:44:54.411Z,61.83
2019-02-04T18:47:23.002Z,61.92
2019-02-04T18:49:50.187Z,61.90
2019-02-04T18:52:17.082Z,62.69
2019-02-04T18:54:44.417Z,62.69
2019-02-04T18:57:11.378Z,62.93
2019-02-04T18:59:38.400Z,63.28
2019-02-04T19:02:05.170Z,63.32
2019-02-04T19:04:31.907Z,63.16
2019-02-04T19:06:58.678Z,63.16
2019-02-04T19:09:25.589Z,63.61
2019-02-04T19:11:55.592Z,63.82
2019-02-04T19:14:23.191Z,63.99
2019-02-04T19:16:50.430Z,63.57
2019-02-04T19:19:17.478Z,63.46
2019-02-04T19:21:44.191Z,63.46
2019-02-04T19:24:11.354Z,63.77
2019-02-04T19:26:38.246Z,63.80
2019-02-04T19:29:07.645Z,63.62
2019-02-04T19:31:34.668Z,63.94
2019-02-04T19:34:02.046Z,63.94
2019-02-04T19:36:28.926Z,63.95
2019-02-04T19:38:55.685Z,63.95
2019-02-04T19:41:22.431Z,64.66
2019-02-04T19:43:53.216Z,64.66
2019-02-04T19:46:20.129Z,64.72
2019-02-04T19:48:46.861Z,64.70
2019-02-04T19:51:13.993Z,64.77
2019-02-04T19:53:40.696Z,64.85
2019-02-04T19:56:07.645Z,64.86
2019-02-04T19:58:34.844Z,65.04
2019-02-04T20:01:01.813Z,65.09
2019-02-04T20:03:28.612Z,65.09
2019-02-04T20:05:55.565Z,64.93
2019-02-04T20:08:22.595Z,65.37
2019-02-04T20:10:49.900Z,65.92
2019-02-04T20:13:16.734Z,65.67
2019-02-04T20:15:43.479Z,65.67
2019-02-04T20:18:10.516Z,65.60
2019-02-04T20:20:37.262Z,65.60
2019-02-04T20:23:04.024Z,65.96
2019-02-04T20:25:30.931Z,66.27
2019-02-04T20:27:57.740Z,66.83
2019-02-04T20:30:30.132Z,66.97
2019-02-04T20:32:57.102Z,66.10
2019-02-04T20:35:25.773Z,66.10
2019-02-04T20:37:52.646Z,66.63
2019-02-04T20:40:20.624Z,66.73
2019-02-04T20:42:47.883Z,66.73
2019-02-04T20:45:15.067Z,66.71
2019-02-04T20:47:42.162Z,66.90
2019-02-04T20:50:13.120Z,66.94
2019-02-04T20:52:40.012Z,66.89
2019-02-04T20:55:06.758Z,66.89
2019-02-04T20:57:33.744Z,67.24
2019-02-04T21:00:00.974Z,67.28
2019-02-04T21:02:27.817Z,67.57
2019-02-04T21:04:55.035Z,67.58
2019-02-04T21:07:21.798Z,67.54
2019-02-04T21:09:48.766Z,67.54
2019-02-04T21:12:17.365Z,67.06
2019-02-04T21:14:44.474Z,67.88
2019-02-04T21:17:11.829Z,68.27
2019-02-04T21:19:38.863Z,68.02
2019-02-04T21:22:05.964Z,68.00
2019-02-04T21:24:33.002Z,68.00
2019-02-04T21:27:00.211Z,67.79
2019-02-04T21:29:26.916Z,67.84
2019-02-04T21:31:53.693Z,68.05
2019-02-04T21:34:20.396Z,68.48
2019-02-04T21:36:47.137Z,68.48
2019-02-04T21:39:13.983Z,68.38
2019-02-04T21:41:40.671Z,68.63
2019-02-04T21:44:08.794Z,68.94
2019-02-04T21:46:35.544Z,69.63
2019-02-04T21:49:02.340Z,68.89
2019-02-04T21:51:31.164Z,68.89
2019-02-04T21:53:58.005Z,68.49
2019-02-04T21:56:25.631Z,68.49
2019-02-04T21:58:52.469Z,68.46
2019-02-04T22:01:19.276Z,69.81
2019-02-04T22:03:48.603Z,69.31
2019-02-04T22:06:15.333Z,69.53
2019-02-04T22:08:42.070Z,69.32
2019-02-04T22:11:09.127Z,69.32
2019-02-04T22:13:37.201Z,69.26
2019-02-04T22:16:04.031Z,70.04
2019-02-04T22:18:30.748Z,71.10
2019-02-04T22:20:57.516Z,71.10
2019-02-04T22:23:24.261Z,70.22
2019-02-04T22:25:51.278Z,69.79
2019-02-04T22:28:18.043Z,69.37
2019-02-04T22:30:45.275Z,69.26
2019-02-04T22:33:12.151Z,69.40
2019-02-04T22:35:38.941Z,69.42
2019-02-04T22:38:05.646Z,69.79
2019-02-04T22:40:32.629Z,69.83
2019-02-04T22:42:59.652Z,68.96
2019-02-04T22:45:26.399Z,70.17
2019-02-04T22:47:53.225Z,71.31
2019-02-04T22:50:22.042Z,70.72
2019-02-04T22:52:48.771Z,70.08
2019-02-04T22:55:15.889Z,69.68
2019-02-04T22:57:42.815Z,69.49
2019-02-04T23:00:25.674Z,68.82
2019-02-04T23:02:52.400Z,70.07
2019-02-04T23:05:21.439Z,69.96
2019-02-04T23:08:10.741Z,69.37
2019-02-04T23:10:37.987Z,69.13
2019-02-04T23:13:05.155Z,68.92
2019-02-04T23:15:31.970Z,68.71
2019-02-04T23:17:58.723Z,68.86
2019-02-04T23:20:25.860Z,68.46
2019-02-04T23:22:52.978Z,68.46
2019-02-04T23:25:19.780Z,68.47
2019-02-04T23:27:46.714Z,67.96
2019-02-04T23:30:13.517Z,67.96
2019-02-04T23:32:40.690Z,68.23
2019-02-04T23:35:07.639Z,68.40
2019-02-04T23:37:34.713Z,68.21
2019-02-04T23:40:01.467Z,68.27
2019-02-04T23:42:28.228Z,68.77
2019-02-04T23:44:55.525Z,69.05
2019-02-04T23:47:22.379Z,68.95
2019-02-04T23:49:49.113Z,68.50
2019-02-04T23:52:15.845Z,67.95
2019-02-04T23:54:42.933Z,67.72
2019-02-04T23:57:10.189Z,68.99
2019-02-04T23:59:36.896Z,69.75
